Time;durP1;ratioP1;P1;durP2;ratioP2;P2;SDS_P1;SDS_P2;PMS_P1;PMS_P2;Temp;Humidity;BMP_temperature;BMP_pressure;BME280_temperature;BME280_humidity;BME280_pressure;Samples;Min_cycle;Max_cycle;Signal;HPM_P1;HPM_P2
2023/05/09 00:00:15;;;;;;;;;;;;;;;15.24;83.97;95408.22;5095450;28;1061;-57
2023/05/09 00:02:44;;;;;;;;;;;;;;;15.26;84.67;95405.34;5095609;28;982;-58
2023/05/09 00:05:11;;;;;;;;;;;;;;;15.38;82.79;95406.56;5095487;28;926;-58
2023/05/09 00:07:37;;;;;;;;;;;;;;;15.32;83.19;95410.81;5095452;28;1055;-58
2023/05/09 00:10:03;;;;;;;;;;;;;;;15.17;84.34;95412.66;5095561;28;965;-57
2023/05/09 00:12:29;;;;;;;;;;;;;;;15.18;84.56;95404.41;5095391;28;1044;-58
2023/05/09 00:14:55;;;;;;;;;;;;;;;15.19;83.86;95410.63;5095527;28;1262;-58
2023/05/09 00:17:22;;;;;;;;;;;;;;;15.21;83.34;95400.50;5095090;28;1983;-58
2023/05/09 00:19:49;;;;;;;;;;;;;;;15.11;83.51;95408.00;5095608;28;1049;-57
2023/05/09 00:22:16;;;;;;;;;;;;;;;15.23;83.46;95403.84;5095009;28;1058;-58
2023/05/09 00:24:42;;;;;;;;;;;;;;;15.27;82.38;95407.88;5095049;28;1119;-58
2023/05/09 00:27:09;;;;;;;;;;;;;;;15.25;82.50;95409.06;5095058;28;976;-58
2023/05/09 00:29:35;;;;;;;;;;;;;;;15.17;83.13;95402.72;5095230;28;1325;-58
2023/05/09 00:32:01;;;;;;;;;;;;;;;15.06;84.13;95399.63;5095047;28;1154;-58
2023/05/09 00:34:27;;;;;;;;;;;;;;;15.07;84.86;95399.47;5094970;28;981;-58
2023/05/09 00:36:54;;;;;;;;;;;;;;;15.09;84.54;95405.50;5094719;28;1910;-57
2023/05/09 00:39:20;;;;;;;;;;;;;;;15.17;82.65;95396.50;5094816;28;1033;-58
2023/05/09 00:41:46;;;;;;;;;;;;;;;15.08;84.03;95402.97;5094790;28;1140;-58
2023/05/09 00:44:12;;;;;;;;;;;;;;;15.07;82.36;95407.53;5094717;28;1996;-58
2023/05/09 00:46:39;;;;;;;;;;;;;;;15.08;83.98;95402.97;5094812;28;1035;-58
2023/05/09 00:49:05;;;;;;;;;;;;;;;15.09;83.67;95404.66;5094821;28;981;-58
2023/05/09 00:51:31;;;;;;;;;;;;;;;15.06;83.89;95399.63;5094498;28;990;-58
2023/05/09 00:53:58;;;;;;;;;;;;;;;15.05;83.19;95397.97;5094855;28;1017;-58
2023/05/09 00:56:24;;;;;;;;;;;;;;;15.02;83.82;95407.25;5094390;28;1987;-58
2023/05/09 00:58:50;;;;;;;;;;;;;;;15.06;83.56;95400.47;5094733;28;1004;-58
2023/05/09 01:01:16;;;;;;;;;;;;;;;15.00;84.51;95398.50;5094514;28;1005;-58
2023/05/09 01:03:43;;;;;;;;;;;;;;;15.02;83.60;95394.63;5094508;28;1164;-58
2023/05/09 01:06:12;;;;;;;;;;;;;;;14.99;83.45;95402.25;5093232;28;1510;-58
2023/05/09 01:08:38;;;;;;;;;;;;;;;14.98;83.55;95401.38;5093397;28;973;-58
2023/05/09 01:11:24;;;;;;;;;;;;;;;14.98;83.13;95404.06;5094268;28;1105;-58
2023/05/09 01:14:07;;;;;;;;;;;;;;;15.03;82.47;95409.75;5094212;28;1153;-58
2023/05/09 01:16:37;;;;;;;;;;;;;;;15.08;82.79;95397.59;5094071;28;1985;-58
2023/05/09 01:19:21;;;;;;;;;;;;;;;14.94;84.05;95408.16;5094472;28;1047;-58
2023/05/09 01:21:48;;;;;;;;;;;;;;;15.01;84.48;95419.06;5094176;28;1022;-58
2023/05/09 01:24:23;;;;;;;;;;;;;;;14.99;83.35;95410.31;5094186;28;1060;-58
2023/05/09 01:26:59;;;;;;;;;;;;;;;15.02;82.87;95413.50;5093059;28;982;-58
2023/05/09 01:29:25;;;;;;;;;;;;;;;15.03;83.29;95415.16;5093973;28;969;-58
2023/05/09 01:31:53;;;;;;;;;;;;;;;14.89;84.25;95410.56;5092916;28;1154;-58
2023/05/09 01:34:20;;;;;;;;;;;;;;;15.00;82.24;95409.28;5093728;28;1045;-58
2023/05/09 01:36:48;;;;;;;;;;;;;;;14.88;84.83;95408.88;5093775;28;1914;-58
2023/05/09 01:39:16;;;;;;;;;;;;;;;14.96;82.54;95416.06;5093445;28;1056;-58
2023/05/09 01:41:42;;;;;;;;;;;;;;;14.87;83.18;95415.28;5093795;28;1117;-58
2023/05/09 01:44:09;;;;;;;;;;;;;;;14.93;83.44;95406.50;5094022;28;1075;-58
2023/05/09 01:46:36;;;;;;;;;;;;;;;14.96;82.55;95410.66;5093927;28;985;-58
2023/05/09 01:49:04;;;;;;;;;;;;;;;15.04;82.29;95418.66;5092656;28;1055;-58
2023/05/09 01:51:31;;;;;;;;;;;;;;;15.01;81.40;95421.75;5093673;28;1013;-58
2023/05/09 01:53:59;;;;;;;;;;;;;;;14.90;82.06;95423.00;5093524;28;1053;-58
2023/05/09 01:56:25;;;;;;;;;;;;;;;14.97;81.55;95423.97;5093393;28;1906;-58
2023/05/09 01:58:52;;;;;;;;;;;;;;;14.92;81.49;95420.97;5093599;28;1104;-58
2023/05/09 02:01:18;;;;;;;;;;;;;;;14.93;80.44;95419.97;5093637;28;965;-58
2023/05/09 02:03:46;;;;;;;;;;;;;;;14.95;81.32;95428.69;5093457;28;1041;-58
2023/05/09 02:06:13;;;;;;;;;;;;;;;15.00;81.88;95425.44;5093536;28;1028;-58
2023/05/09 02:08:40;;;;;;;;;;;;;;;14.91;81.38;95429.22;5093436;28;1012;-58
2023/05/09 02:11:06;;;;;;;;;;;;;;;14.94;80.74;95426.19;5093387;28;1080;-58
2023/05/09 02:13:32;;;;;;;;;;;;;;;14.97;80.33;95423.97;5093276;28;1069;-58
2023/05/09 02:15:58;;;;;;;;;;;;;;;14.88;82.44;95421.53;5093297;28;1989;-58
2023/05/09 02:18:24;;;;;;;;;;;;;;;14.84;81.93;95411.09;5093442;28;973;-57
2023/05/09 02:20:50;;;;;;;;;;;;;;;14.81;82.09;95413.31;5093440;28;1014;-58
2023/05/09 02:23:17;;;;;;;;;;;;;;;14.83;81.33;95411.28;5093237;28;1048;-58
2023/05/09 02:25:43;;;;;;;;;;;;;;;14.75;82.54;95406.81;5092027;28;1012;-57
2023/05/09 02:28:09;;;;;;;;;;;;;;;14.76;80.99;95413.88;5093125;28;1101;-58
2023/05/09 02:30:40;;;;;;;;;;;;;;;14.79;80.33;95420.75;5093276;28;1112;-58
2023/05/09 02:33:07;;;;;;;;;;;;;;;14.76;82.06;95418.41;5093200;28;1165;-58
2023/05/09 02:35:34;;;;;;;;;;;;;;;14.70;81.09;95416.44;5092950;28;1973;-58
2023/05/09 02:38:00;;;;;;;;;;;;;;;14.68;82.49;95416.59;5093275;28;1109;-57
2023/05/09 02:40:27;;;;;;;;;;;;;;;14.69;82.06;95420.16;5093138;28;965;-58
2023/05/09 02:42:53;;;;;;;;;;;;;;;14.68;81.32;95413.09;5093140;28;1104;-58
2023/05/09 02:45:19;;;;;;;;;;;;;;;14.73;82.11;95416.91;5093026;28;1076;-58
2023/05/09 02:47:45;;;;;;;;;;;;;;;14.81;80.71;95421.41;5093080;28;925;-58
2023/05/09 02:50:11;;;;;;;;;;;;;;;14.72;81.37;95415.25;5092995;28;1003;-58
2023/05/09 02:52:37;;;;;;;;;;;;;;;14.65;81.90;95419.69;5096505;28;1120;-57
2023/05/09 02:55:04;;;;;;;;;;;;;;;14.64;81.22;95418.00;5096843;28;965;-57
2023/05/09 02:57:30;;;;;;;;;;;;;;;14.70;80.22;95413.75;5096872;28;1906;-58
2023/05/09 02:59:56;;;;;;;;;;;;;;;14.73;79.72;95408.00;5096890;28;1042;-58
2023/05/09 03:02:22;;;;;;;;;;;;;;;14.59;80.05;95417.72;5096745;28;1032;-58
2023/05/09 03:04:49;;;;;;;;;;;;;;;14.48;81.58;95418.09;5096794;28;1036;-58
2023/05/09 03:07:15;;;;;;;;;;;;;;;14.57;80.80;95417.03;5095496;28;1001;-58
2023/05/09 03:09:41;;;;;;;;;;;;;;;14.64;80.55;95416.16;5096608;28;1012;-58
2023/05/09 03:12:07;;;;;;;;;;;;;;;14.64;81.25;95421.53;5096799;28;1052;-58
2023/05/09 03:14:33;;;;;;;;;;;;;;;14.63;81.01;95427.94;5096650;28;981;-58
2023/05/09 03:16:59;;;;;;;;;;;;;;;14.53;82.04;95427.31;5096415;28;1910;-58
2023/05/09 03:19:26;;;;;;;;;;;;;;;14.47;82.48;95432.53;5096419;28;1042;-58
2023/05/09 03:21:51;;;;;;;;;;;;;;;14.53;81.59;95432.69;5096501;28;1128;-58
2023/05/09 03:24:17;;;;;;;;;;;;;;;14.60;80.77;95433.66;5096310;28;1052;-57
2023/05/09 03:26:43;;;;;;;;;;;;;;;14.51;81.02;95428.47;5096419;28;995;-57
2023/05/09 03:29:09;;;;;;;;;;;;;;;14.52;80.35;95438.25;5096582;28;1032;-57
2023/05/09 03:31:35;;;;;;;;;;;;;;;14.61;80.23;95439.91;5096192;28;1311;-56
2023/05/09 03:34:01;;;;;;;;;;;;;;;14.64;79.33;95442.22;5096385;28;1059;-57
2023/05/09 03:36:27;;;;;;;;;;;;;;;14.63;80.52;95437.88;5095953;28;1914;-56
2023/05/09 03:38:53;;;;;;;;;;;;;;;14.68;79.88;95434.63;5096135;28;1041;-56
2023/05/09 03:41:20;;;;;;;;;;;;;;;14.76;79.67;95432.72;5096273;28;1136;-57
2023/05/09 03:43:46;;;;;;;;;;;;;;;14.74;79.16;95433.88;5096325;28;1016;-57
2023/05/09 03:46:12;;;;;;;;;;;;;;;14.83;77.91;95441.75;5096154;28;984;-56
2023/05/09 03:48:38;;;;;;;;;;;;;;;14.69;78.94;95444.38;5096014;28;1500;-56
2023/05/09 03:51:04;;;;;;;;;;;;;;;14.56;80.76;95442.25;5095940;28;1001;-57
2023/05/09 03:53:29;;;;;;;;;;;;;;;14.68;79.35;95448.91;5095751;28;1148;-56
2023/05/09 03:55:55;;;;;;;;;;;;;;;14.73;78.11;95443.00;5096026;28;1913;-55
2023/05/09 03:58:21;;;;;;;;;;;;;;;14.76;78.08;95445.31;5095890;28;1044;-56
2023/05/09 04:00:47;;;;;;;;;;;;;;;14.72;78.33;95434.09;5095916;28;997;-56
2023/05/09 04:03:13;;;;;;;;;;;;;;;14.67;78.80;95446.41;5095284;28;1192;-56
2023/05/09 04:05:40;;;;;;;;;;;;;;;14.70;79.59;95443.34;5095734;28;964;-56
2023/05/09 04:08:06;;;;;;;;;;;;;;;14.73;78.35;95449.22;5095530;28;989;-56
2023/05/09 04:10:32;;;;;;;;;;;;;;;14.81;77.74;95445.63;5095708;28;1141;-56
2023/05/09 04:12:58;;;;;;;;;;;;;;;15.06;76.29;95448.94;5095543;28;1116;-56
2023/05/09 04:15:24;;;;;;;;;;;;;;;15.21;75.56;95452.53;5095514;28;973;-56
2023/05/09 04:17:50;;;;;;;;;;;;;;;15.32;74.47;95445.03;5095343;28;1905;-56
2023/05/09 04:20:16;;;;;;;;;;;;;;;15.23;76.88;95446.94;5094233;28;993;-55
2023/05/09 04:22:42;;;;;;;;;;;;;;;15.22;77.33;95454.19;5094099;28;970;-56
2023/05/09 04:25:11;;;;;;;;;;;;;;;15.25;77.33;95455.66;5095493;28;1052;-56
2023/05/09 04:27:37;;;;;;;;;;;;;;;15.41;75.72;95460.09;5095379;28;1021;-56
2023/05/09 04:30:04;;;;;;;;;;;;;;;15.74;74.76;95467.84;5095286;28;949;-56
2023/05/09 04:32:29;;;;;;;;;;;;;;;15.65;74.51;95469.78;5095113;28;1220;-56
2023/05/09 04:34:55;;;;;;;;;;;;;;;15.71;74.53;95470.91;5095196;28;987;-56
2023/05/09 04:37:21;;;;;;;;;;;;;;;15.77;74.26;95468.31;5094730;28;1976;-57
2023/05/09 04:39:47;;;;;;;;;;;;;;;15.91;73.35;95471.19;5095217;28;1051;-57
2023/05/09 04:42:13;;;;;;;;;;;;;;;16.24;73.70;95477.06;5094842;28;1053;-57
2023/05/09 04:44:39;;;;;;;;;;;;;;;16.44;72.52;95466.47;5095070;28;1131;-58
2023/05/09 04:47:05;;;;;;;;;;;;;;;16.64;72.50;95463.16;5094957;28;1078;-57
2023/05/09 04:49:31;;;;;;;;;;;;;;;16.82;72.17;95465.44;5094707;28;1109;-58
2023/05/09 04:51:57;;;;;;;;;;;;;;;16.93;71.30;95462.25;5094782;28;1104;-58
2023/05/09 04:54:23;;;;;;;;;;;;;;;16.83;71.90;95464.44;5094613;28;1047;-57
2023/05/09 04:56:49;;;;;;;;;;;;;;;16.95;70.52;95463.72;5094785;28;1914;-56
2023/05/09 04:59:15;;;;;;;;;;;;;;;16.77;69.69;95468.72;5094534;28;1053;-57
2023/05/09 05:01:42;;;;;;;;;;;;;;;16.46;71.38;95467.13;5094739;28;1048;-57
2023/05/09 05:04:08;;;;;;;;;;;;;;;16.34;73.87;95466.78;5094557;28;978;-57
2023/05/09 05:06:35;;;;;;;;;;;;;;;16.34;72.48;95464.09;5094417;28;985;-55
2023/05/09 05:09:00;;;;;;;;;;;;;;;16.41;72.97;95456.09;5094715;28;1055;-57
2023/05/09 05:11:26;;;;;;;;;;;;;;;16.72;71.39;95460.34;5094375;28;1969;-57
2023/05/09 05:13:52;;;;;;;;;;;;;;;17.06;70.20;95464.25;5093791;28;1009;-57
2023/05/09 05:16:18;;;;;;;;;;;;;;;17.42;69.79;95457.91;5094255;28;1985;-58
2023/05/09 05:18:44;;;;;;;;;;;;;;;17.58;70.68;95462.19;5094362;28;1047;-57
2023/05/09 05:21:10;;;;;;;;;;;;;;;17.76;67.84;95457.94;5094158;28;1115;-57
2023/05/09 05:23:36;;;;;;;;;;;;;;;18.09;68.24;95460.03;5094185;28;1020;-57
2023/05/09 05:26:02;;;;;;;;;;;;;;;18.29;67.77;95465.53;5093212;28;1290;-56
2023/05/09 05:28:28;;;;;;;;;;;;;;;18.03;67.62;95463.53;5093984;28;1056;-57
2023/05/09 05:30:54;;;;;;;;;;;;;;;18.23;67.54;95469.06;5093966;28;1149;-58
2023/05/09 05:33:20;;;;;;;;;;;;;;;18.49;66.95;95473.72;5093936;28;1045;-58
2023/05/09 05:35:46;;;;;;;;;;;;;;;18.78;63.11;95466.34;5093762;28;1910;-58
2023/05/09 05:38:12;;;;;;;;;;;;;;;18.95;63.67;95471.38;5094121;28;941;-58
2023/05/09 05:40:38;;;;;;;;;;;;;;;18.94;62.99;95469.75;5093962;28;1045;-58
2023/05/09 05:43:04;;;;;;;;;;;;;;;18.92;63.40;95470.75;5093862;28;933;-58
2023/05/09 05:45:31;;;;;;;;;;;;;;;18.82;63.70;95483.03;5093896;28;1028;-58
2023/05/09 05:47:57;;;;;;;;;;;;;;;18.29;64.54;95481.78;5092742;28;985;-58
2023/05/09 05:50:23;;;;;;;;;;;;;;;17.85;65.74;95480.28;5093710;28;964;-58
2023/05/09 05:52:49;;;;;;;;;;;;;;;17.86;65.70;95483.81;5092575;28;989;-58
2023/05/09 05:55:15;;;;;;;;;;;;;;;17.98;65.68;95482.22;5093892;28;973;-59
2023/05/09 05:57:41;;;;;;;;;;;;;;;17.82;66.54;95483.34;5093642;28;1933;-59
2023/05/09 06:00:09;;;;;;;;;;;;;;;17.56;65.34;95486.69;5093735;28;1044;-58
2023/05/09 07:38:13;;;;;;;;;;;;;;;19.50;55.78;95445.78;5070217;27;1400;-55
2023/05/09 07:40:40;;;;;;;;;;;;;;;19.44;58.40;95438.47;5070427;28;1010;-54
2023/05/09 07:43:06;;;;;;;;;;;;;;;19.49;57.81;95440.56;5070504;28;1059;-55
2023/05/09 07:45:33;;;;;;;;;;;;;;;19.43;59.64;95444.13;5069921;28;1984;-55
2023/05/09 07:47:59;;;;;;;;;;;;;;;19.61;61.32;95438.06;5070425;28;1016;-55
2023/05/09 07:50:25;;;;;;;;;;;;;;;19.62;53.82;95443.28;5070527;28;1081;-55
2023/05/09 07:52:51;;;;;;;;;;;;;;;19.12;56.69;95437.44;5070054;28;1103;-55
2023/05/09 07:55:17;;;;;;;;;;;;;;;19.41;57.66;95443.50;5070396;28;1047;-55
2023/05/09 07:57:43;;;;;;;;;;;;;;;19.59;56.09;95440.97;5069137;28;1037;-55
2023/05/09 08:00:09;;;;;;;;;;;;;;;19.94;55.11;95446.19;5069949;28;1046;-55
2023/05/09 08:02:35;;;;;;;;;;;;;;;20.26;56.75;95429.97;5069777;28;1222;-55
2023/05/09 08:05:02;;;;;;;;;;;;;;;20.48;58.19;95434.06;5070056;28;989;-55
2023/05/09 08:07:28;;;;;;;;;;;;;;;20.73;55.94;95435.25;5069843;28;1918;-56
2023/05/09 08:09:54;;;;;;;;;;;;;;;20.91;56.15;95431.81;5069918;28;997;-56
2023/05/09 08:12:20;;;;;;;;;;;;;;;21.04;56.28;95440.69;5069953;28;1034;-56
2023/05/09 08:14:46;;;;;;;;;;;;;;;20.81;52.25;95440.41;5069510;28;1025;-56
2023/05/09 08:17:12;;;;;;;;;;;;;;;20.80;54.59;95434.16;5069828;28;989;-56
2023/05/09 08:19:38;;;;;;;;;;;;;;;20.55;50.77;95435.94;5069504;28;1041;-55
2023/05/09 08:22:04;;;;;;;;;;;;;;;20.93;54.14;95432.41;5069613;28;1021;-56
2023/05/09 08:24:31;;;;;;;;;;;;;;;21.61;52.65;95432.53;5069702;28;1032;-56
2023/05/09 08:26:57;;;;;;;;;;;;;;;21.76;50.05;95434.06;5069279;28;1991;-55
2023/05/09 08:29:23;;;;;;;;;;;;;;;21.50;53.34;95425.09;5069487;28;993;-56
2023/05/09 08:31:50;;;;;;;;;;;;;;;21.32;52.95;95422.28;5069532;28;1030;-55
2023/05/09 08:34:16;;;;;;;;;;;;;;;21.21;54.05;95430.13;5069379;28;965;-55
2023/05/09 08:36:44;;;;;;;;;;;;;;;21.05;55.88;95425.22;5076571;28;1441;-56
2023/05/09 08:39:10;;;;;;;;;;;;;;;21.69;52.22;95433.31;5076599;28;1048;-56
2023/05/09 08:41:37;;;;;;;;;;;;;;;22.27;52.42;95430.22;5075820;28;1052;-56
2023/05/09 08:44:03;;;;;;;;;;;;;;;22.25;51.32;95424.13;5076059;28;1027;-56
2023/05/09 08:46:32;;;;;;;;;;;;;;;22.24;50.42;95430.63;5075660;28;1998;-56
2023/05/09 08:48:59;;;;;;;;;;;;;;;22.01;52.63;95425.88;5075737;28;993;-56
2023/05/09 08:51:25;;;;;;;;;;;;;;;21.87;51.17;95427.88;5076022;28;1046;-56
2023/05/09 08:53:52;;;;;;;;;;;;;;;21.90;51.84;95416.56;5075710;28;1041;-56
2023/05/09 08:56:18;;;;;;;;;;;;;;;22.01;51.46;95414.97;5075823;28;973;-56
2023/05/09 08:58:44;;;;;;;;;;;;;;;22.21;51.91;95417.47;5075637;28;1021;-55
2023/05/09 09:01:12;;;;;;;;;;;;;;;22.01;50.80;95413.06;5075582;28;1081;-56
2023/05/09 09:03:38;;;;;;;;;;;;;;;21.66;49.40;95412.81;5075433;28;1080;-56
2023/05/09 09:06:06;;;;;;;;;;;;;;;21.11;54.08;95404.47;5075380;28;1914;-56
2023/05/09 09:08:33;;;;;;;;;;;;;;;20.88;53.60;95407.78;5075272;28;1108;-56
2023/05/09 09:10:59;;;;;;;;;;;;;;;20.67;56.61;95402.44;5075325;28;1048;-56
2023/05/09 09:13:26;;;;;;;;;;;;;;;20.70;56.51;95403.06;5075564;28;1012;-56
2023/05/09 09:15:53;;;;;;;;;;;;;;;20.42;56.72;95402.34;5075280;28;1049;-56
2023/05/09 09:18:26;;;;;;;;;;;;;;;20.33;57.85;95402.81;5075562;28;1053;-56
2023/05/09 09:20:56;;;;;;;;;;;;;;;20.26;55.51;95405.53;5075225;28;1025;-56
2023/05/09 09:23:23;;;;;;;;;;;;;;;19.87;56.52;95404.66;5075081;28;1072;-56
2023/05/09 09:25:56;;;;;;;;;;;;;;;19.81;54.93;95417.19;5075564;28;1906;-55
2023/05/09 09:28:22;;;;;;;;;;;;;;;19.58;55.05;95412.19;5075021;28;1049;-56
2023/05/09 09:30:48;;;;;;;;;;;;;;;19.68;57.21;95412.59;5075285;28;1040;-56
2023/05/09 09:33:18;;;;;;;;;;;;;;;19.76;56.56;95399.88;5075220;28;1039;-56
2023/05/09 09:35:44;;;;;;;;;;;;;;;19.81;56.17;95405.50;5074798;28;1155;-56
2023/05/09 09:38:10;;;;;;;;;;;;;;;19.70;57.77;95399.66;5074670;28;1339;-55
2023/05/09 09:40:38;;;;;;;;;;;;;;;19.48;54.62;95399.06;5075058;28;1036;-55
2023/05/09 09:43:05;;;;;;;;;;;;;;;19.45;55.20;95401.38;5074730;28;1096;-56
2023/05/09 09:45:31;;;;;;;;;;;;;;;19.59;56.99;95403.00;5074640;28;2015;-55
2023/05/09 09:47:57;;;;;;;;;;;;;;;19.63;58.89;95401.53;5074657;28;1338;-55
2023/05/09 09:50:24;;;;;;;;;;;;;;;19.60;55.17;95401.97;5073671;28;1251;-56
2023/05/09 09:52:59;;;;;;;;;;;;;;;19.51;56.29;95400.53;5074749;28;1005;-56
2023/05/09 09:55:25;;;;;;;;;;;;;;;19.32;56.77;95396.78;5074869;28;1123;-55
2023/05/09 09:57:51;;;;;;;;;;;;;;;19.15;56.30;95395.56;5074569;28;977;-55
2023/05/09 10:00:18;;;;;;;;;;;;;;;19.18;56.83;95395.97;5074679;28;977;-55
2023/05/09 10:02:48;;;;;;;;;;;;;;;19.34;59.97;95396.59;5074270;28;1042;-55
2023/05/09 10:05:24;;;;;;;;;;;;;;;19.31;58.60;95395.09;5074243;28;1029;-55
2023/05/09 10:07:58;;;;;;;;;;;;;;;19.05;57.15;95393.25;5074075;28;1969;-55
2023/05/09 10:10:28;;;;;;;;;;;;;;;18.97;58.45;95388.03;5074548;28;1053;-55
2023/05/09 10:12:58;;;;;;;;;;;;;;;18.82;56.44;95389.06;5074574;28;1005;-55
2023/05/09 10:15:25;;;;;;;;;;;;;;;18.69;56.93;95389.84;5074150;28;1021;-55
2023/05/09 10:17:59;;;;;;;;;;;;;;;18.85;58.49;95391.34;5073932;28;973;-55
2023/05/09 10:20:27;;;;;;;;;;;;;;;18.51;57.60;95390.41;5074256;28;1032;-55
2023/05/09 10:22:56;;;;;;;;;;;;;;;18.31;58.97;95389.56;5074289;28;957;-55
2023/05/09 10:25:26;;;;;;;;;;;;;;;18.29;59.29;95405.16;5056366;28;1063;-55
2023/05/09 10:27:53;;;;;;;;;;;;;;;18.10;58.17;95404.88;5074139;28;2022;-55
2023/05/09 10:30:26;;;;;;;;;;;;;;;17.97;60.94;95390.47;5074060;28;963;-55
2023/05/09 10:32:52;;;;;;;;;;;;;;;17.94;60.46;95400.63;5074247;28;997;-55
2023/05/09 10:35:21;;;;;;;;;;;;;;;17.81;58.80;95394.28;5073986;28;1213;-55
2023/05/09 10:37:47;;;;;;;;;;;;;;;17.73;59.34;95392.59;5073479;28;1219;-55
2023/05/09 10:40:14;;;;;;;;;;;;;;;17.60;59.79;95393.34;5073658;28;1037;-55
2023/05/09 10:42:44;;;;;;;;;;;;;;;17.62;59.85;95391.28;5073506;28;1057;-55
2023/05/09 10:45:11;;;;;;;;;;;;;;;17.67;62.44;95393.41;5073833;28;1105;-55
2023/05/09 10:47:38;;;;;;;;;;;;;;;17.81;61.65;95395.13;5073679;28;1961;-55
2023/05/09 10:50:06;;;;;;;;;;;;;;;17.90;61.63;95401.25;5073851;28;1015;-55
2023/05/09 10:52:34;;;;;;;;;;;;;;;17.85;61.61;95395.59;5073745;28;973;-55
2023/05/09 10:55:02;;;;;;;;;;;;;;;17.84;60.60;95399.31;5073472;28;1089;-55
2023/05/09 10:57:29;;;;;;;;;;;;;;;17.64;62.03;95393.78;5073414;28;1016;-55
2023/05/09 10:59:56;;;;;;;;;;;;;;;17.85;61.89;95395.59;5073634;28;1025;-55
2023/05/09 11:02:28;;;;;;;;;;;;;;;18.07;62.12;95399.84;5073325;28;966;-55
2023/05/09 11:05:13;;;;;;;;;;;;;;;18.11;60.36;95401.13;5073386;28;1853;-55
2023/05/09 11:07:39;;;;;;;;;;;;;;;18.05;59.46;95401.09;5073173;28;1887;-55
2023/05/09 11:10:08;;;;;;;;;;;;;;;18.15;58.53;95398.84;5073445;28;1073;-55
2023/05/09 11:12:51;;;;;;;;;;;;;;;18.17;58.49;95404.06;5073137;28;941;-55
2023/05/09 11:15:17;;;;;;;;;;;;;;;18.25;61.06;95404.72;5073442;28;966;-55
2023/05/09 11:17:43;;;;;;;;;;;;;;;18.16;57.30;95407.81;5073254;28;1043;-55
2023/05/09 11:20:09;;;;;;;;;;;;;;;18.10;59.15;95399.47;5073271;28;1056;-55
2023/05/09 11:22:40;;;;;;;;;;;;;;;18.42;61.19;95394.38;5073008;28;1084;-55
2023/05/09 11:25:10;;;;;;;;;;;;;;;18.25;59.46;95396.63;5073410;28;969;-55
2023/05/09 11:27:36;;;;;;;;;;;;;;;17.99;58.74;95397.34;5073091;28;1985;-55
2023/05/09 11:30:04;;;;;;;;;;;;;;;17.91;57.18;95401.06;5073429;28;969;-55
2023/05/09 11:32:31;;;;;;;;;;;;;;;17.92;59.03;95402.69;5072971;28;1057;-55
2023/05/09 11:35:08;;;;;;;;;;;;;;;17.76;56.69;95401.16;5073010;28;1166;-54
2023/05/09 11:37:58;;;;;;;;;;;;;;;17.62;57.44;95395.84;5072779;28;1103;-55
2023/05/09 11:40:25;;;;;;;;;;;;;;;17.62;56.52;95402.09;5073352;28;1028;-55
2023/05/09 11:42:52;;;;;;;;;;;;;;;17.58;56.61;95398.13;5072761;28;1096;-55
2023/05/09 11:45:19;;;;;;;;;;;;;;;17.68;58.30;95400.47;5072921;28;1034;-55
2023/05/09 11:47:46;;;;;;;;;;;;;;;17.55;57.86;95399.34;5072737;28;1981;-55
2023/05/09 11:50:13;;;;;;;;;;;;;;;17.60;56.78;95408.75;5072884;28;1029;-55
2023/05/09 11:52:39;;;;;;;;;;;;;;;17.57;57.97;95401.88;5055194;28;957;-55
2023/05/09 11:55:06;;;;;;;;;;;;;;;17.63;57.27;95401.06;5072887;28;1861;-55
2023/05/09 11:57:33;;;;;;;;;;;;;;;17.58;56.19;95391.88;5072674;28;1036;-55
2023/05/09 12:00:00;;;;;;;;;;;;;;;17.65;57.53;95390.06;5073144;28;1004;-55
2023/05/09 12:02:26;;;;;;;;;;;;;;;17.72;55.83;95390.94;5072712;28;1046;-55
2023/05/09 12:04:53;;;;;;;;;;;;;;;17.65;56.53;95387.34;5072923;28;1170;-55
2023/05/09 12:07:19;;;;;;;;;;;;;;;17.75;56.63;95394.06;5072624;28;2008;-54
2023/05/09 12:09:48;;;;;;;;;;;;;;;17.84;55.74;95394.78;5072905;28;1033;-55
2023/05/09 12:12:16;;;;;;;;;;;;;;;17.80;55.86;95398.06;5072608;28;1049;-55
2023/05/09 12:14:42;;;;;;;;;;;;;;;17.72;57.11;95389.06;5076235;28;1032;-55
2023/05/09 12:17:08;;;;;;;;;;;;;;;17.54;55.88;95384.16;5076620;28;1171;-55
2023/05/09 12:19:35;;;;;;;;;;;;;;;17.58;56.82;95381.91;5076541;28;934;-55
2023/05/09 12:22:02;;;;;;;;;;;;;;;17.60;55.75;95377.13;5076313;28;1125;-55
2023/05/09 12:24:29;;;;;;;;;;;;;;;17.68;57.06;95378.81;5076229;28;978;-55
2023/05/09 12:26:55;;;;;;;;;;;;;;;17.82;58.14;95374.34;5076076;28;1918;-55
2023/05/09 12:29:22;;;;;;;;;;;;;;;17.93;58.46;95373.81;5076100;28;962;-55
2023/05/09 12:31:48;;;;;;;;;;;;;;;18.05;57.18;95374.88;5076351;28;965;-55
2023/05/09 12:34:15;;;;;;;;;;;;;;;18.06;59.10;95378.41;5076001;28;1044;-55
2023/05/09 12:36:52;;;;;;;;;;;;;;;18.02;57.78;95379.84;5075834;28;1158;-55
2023/05/09 12:39:21;;;;;;;;;;;;;;;17.74;57.15;95378.88;5076014;28;1878;-54
2023/05/09 12:41:48;;;;;;;;;;;;;;;17.78;57.48;95373.91;5075831;28;1045;-55
2023/05/09 12:44:21;;;;;;;;;;;;;;;17.65;58.65;95373.84;5075865;28;1045;-54
2023/05/09 12:47:00;;;;;;;;;;;;;;;17.61;58.97;95383.38;5058267;28;1918;-55
2023/05/09 12:49:27;;;;;;;;;;;;;;;17.55;58.79;95375.03;5075944;28;989;-54
2023/05/09 12:51:54;;;;;;;;;;;;;;;17.44;62.23;95377.47;5076097;28;1040;-55
2023/05/09 12:54:24;;;;;;;;;;;;;;;17.31;60.67;95376.31;5075667;28;1046;-55
2023/05/09 12:56:55;;;;;;;;;;;;;;;17.31;61.69;95375.50;5075751;28;989;-55
2023/05/09 12:59:22;;;;;;;;;;;;;;;17.22;62.63;95369.41;5075642;28;1057;-53
2023/05/09 13:01:56;;;;;;;;;;;;;;;17.17;62.16;95370.00;5075513;28;1117;-54
2023/05/09 13:04:22;;;;;;;;;;;;;;;17.15;60.99;95373.94;5075686;28;997;-54
2023/05/09 13:06:49;;;;;;;;;;;;;;;17.13;61.14;95368.72;5075419;28;1914;-55
2023/05/09 13:09:15;;;;;;;;;;;;;;;17.06;60.91;95370.53;5075414;28;1033;-54
2023/05/09 13:11:41;;;;;;;;;;;;;;;16.81;62.33;95378.19;5075240;28;1104;-54
2023/05/09 13:14:08;;;;;;;;;;;;;;;16.55;63.39;95373.38;5075506;28;1053;-54
2023/05/09 13:16:34;;;;;;;;;;;;;;;16.55;63.82;95370.69;5075427;28;973;-54
2023/05/09 13:19:00;;;;;;;;;;;;;;;16.56;63.79;95378.59;5075480;28;1044;-56
2023/05/09 13:21:26;;;;;;;;;;;;;;;16.36;64.17;95374.84;5075527;28;1164;-54
2023/05/09 13:23:53;;;;;;;;;;;;;;;16.35;63.84;95368.63;5075124;28;1032;-54
2023/05/09 13:26:19;;;;;;;;;;;;;;;16.37;65.67;95374.66;5075342;28;1996;-54
2023/05/09 13:28:45;;;;;;;;;;;;;;;16.30;64.61;95370.22;5075201;28;969;-54
2023/05/09 13:31:11;;;;;;;;;;;;;;;16.19;65.26;95372.38;5075012;28;1061;-54
2023/05/09 13:33:38;;;;;;;;;;;;;;;16.26;66.16;95372.47;5075111;28;1034;-54
2023/05/09 13:36:05;;;;;;;;;;;;;;;16.32;66.13;95371.69;5074731;28;1170;-54
2023/05/09 13:38:34;;;;;;;;;;;;;;;16.26;67.39;95372.47;5074865;28;1025;-54
2023/05/09 13:41:00;;;;;;;;;;;;;;;16.25;65.74;95372.66;5074827;28;1108;-54
2023/05/09 13:43:26;;;;;;;;;;;;;;;16.14;67.85;95374.84;5074999;28;1275;-55
2023/05/09 13:45:52;;;;;;;;;;;;;;;16.11;68.11;95359.03;5074951;28;1994;-54
2023/05/09 13:48:18;;;;;;;;;;;;;;;16.12;68.34;95368.78;5057045;28;1037;-54
2023/05/09 13:50:45;;;;;;;;;;;;;;;16.19;69.05;95364.28;5074943;28;1063;-54
2023/05/09 13:53:11;;;;;;;;;;;;;;;16.10;68.74;95375.38;5074909;28;1021;-54
2023/05/09 13:55:37;;;;;;;;;;;;;;;16.05;68.46;95372.41;5056624;28;1046;-55
2023/05/09 13:58:03;;;;;;;;;;;;;;;16.04;67.98;95373.47;5074702;28;967;-54
2023/05/09 14:00:29;;;;;;;;;;;;;;;16.02;67.91;95380.91;5057075;28;1032;-54
2023/05/09 14:02:55;;;;;;;;;;;;;;;15.83;69.60;95375.06;5074805;28;1054;-54
2023/05/09 14:05:21;;;;;;;;;;;;;;;15.89;70.41;95379.72;5074661;28;1024;-54
2023/05/09 14:07:47;;;;;;;;;;;;;;;15.84;68.92;95386.69;5074219;28;1910;-54
2023/05/09 14:10:13;;;;;;;;;;;;;;;15.59;70.17;95385.13;5074167;28;1057;-54
2023/05/09 14:12:42;;;;;;;;;;;;;;;15.61;72.54;95374.13;5074391;28;977;-54
2023/05/09 14:15:09;;;;;;;;;;;;;;;15.56;71.77;95387.34;5074306;28;973;-54
2023/05/09 14:17:35;;;;;;;;;;;;;;;15.49;70.40;95384.53;5074300;28;1033;-54
2023/05/09 14:20:02;;;;;;;;;;;;;;;15.34;73.37;95392.63;5074091;28;1100;-54
2023/05/09 14:22:28;;;;;;;;;;;;;;;15.27;73.47;95386.31;5073946;28;1054;-55
2023/05/09 14:24:56;;;;;;;;;;;;;;;15.06;73.02;95387.00;5074214;28;1173;-54
2023/05/09 14:27:22;;;;;;;;;;;;;;;15.04;72.16;95383.66;5074076;28;1910;-54
2023/05/09 14:29:48;;;;;;;;;;;;;;;15.00;75.12;95385.06;5073797;28;1241;-54
2023/05/09 14:32:14;;;;;;;;;;;;;;;14.86;73.32;95380.50;5073963;28;989;-54
2023/05/09 14:34:40;;;;;;;;;;;;;;;14.84;73.77;95389.56;5073837;28;1005;-54